sensor_id;sensor_type;location;lat;lon;timestamp;temperature;humidity
13673;DHT22;6909;52.202;9.876;2022-10-19T00:00:41;9.70;99.90
13673;DHT22;6909;52.202;9.876;2022-10-19T00:03:09;9.60;99.90
13673;DHT22;6909;52.202;9.876;2022-10-19T00:05:36;9.50;99.90
13673;DHT22;6909;52.202;9.876;2022-10-19T00:08:03;9.30;99.90
13673;DHT22;6909;52.202;9.876;2022-10-19T00:10:29;9.10;99.90
13673;DHT22;6909;52.202;9.876;2022-10-19T00:12:56;9.00;99.90
13673;DHT22;6909;52.202;9.876;2022-10-19T00:15:23;9.00;99.90
13673;DHT22;6909;52.202;9.876;2022-10-19T00:17:50;8.90;99.90
13673;DHT22;6909;52.202;9.876;2022-10-19T00:20:18;8.80;99.90
13673;DHT22;6909;52.202;9.876;2022-10-19T00:22:48;8.60;99.90
13673;DHT22;6909;52.202;9.876;2022-10-19T00:25:15;8.50;99.90
13673;DHT22;6909;52.202;9.876;2022-10-19T00:27:42;8.40;99.90
13673;DHT22;6909;52.202;9.876;2022-10-19T00:30:09;8.30;99.90
13673;DHT22;6909;52.202;9.876;2022-10-19T00:32:35;8.20;99.90
13673;DHT22;6909;52.202;9.876;2022-10-19T00:35:02;8.20;99.90
13673;DHT22;6909;52.202;9.876;2022-10-19T00:37:31;8.10;99.90
13673;DHT22;6909;52.202;9.876;2022-10-19T00:39:57;8.20;99.90
13673;DHT22;6909;52.202;9.876;2022-10-19T00:42:24;8.10;99.90
13673;DHT22;6909;52.202;9.876;2022-10-19T00:45:08;8.10;99.90
13673;DHT22;6909;52.202;9.876;2022-10-19T00:47:37;8.20;99.90
13673;DHT22;6909;52.202;9.876;2022-10-19T00:50:05;8.20;99.90
13673;DHT22;6909;52.202;9.876;2022-10-19T00:52:33;8.20;99.90
13673;DHT22;6909;52.202;9.876;2022-10-19T00:55:00;8.40;99.90
13673;DHT22;6909;52.202;9.876;2022-10-19T00:57:29;8.40;99.90
13673;DHT22;6909;52.202;9.876;2022-10-19T00:59:57;8.50;99.90
13673;DHT22;6909;52.202;9.876;2022-10-19T01:02:25;8.50;99.90
13673;DHT22;6909;52.202;9.876;2022-10-19T01:04:52;8.60;99.90
13673;DHT22;6909;52.202;9.876;2022-10-19T01:07:19;8.60;99.90
13673;DHT22;6909;52.202;9.876;2022-10-19T01:09:47;8.60;99.90
13673;DHT22;6909;52.202;9.876;2022-10-19T01:12:45;8.60;99.90
13673;DHT22;6909;52.202;9.876;2022-10-19T01:15:22;8.60;99.90
13673;DHT22;6909;52.202;9.876;2022-10-19T01:17:58;8.70;99.90
13673;DHT22;6909;52.202;9.876;2022-10-19T01:23:54;8.80;99.90
13673;DHT22;6909;52.202;9.876;2022-10-19T01:26:41;8.80;99.90
13673;DHT22;6909;52.202;9.876;2022-10-19T01:29:16;9.00;99.90
13673;DHT22;6909;52.202;9.876;2022-10-19T01:31:48;9.00;99.90
13673;DHT22;6909;52.202;9.876;2022-10-19T01:34:20;9.10;99.90
13673;DHT22;6909;52.202;9.876;2022-10-19T01:36:56;9.20;99.90
13673;DHT22;6909;52.202;9.876;2022-10-19T01:39:26;9.20;99.90
13673;DHT22;6909;52.202;9.876;2022-10-19T01:42:00;9.20;99.90
13673;DHT22;6909;52.202;9.876;2022-10-19T01:44:36;9.30;99.90
13673;DHT22;6909;52.202;9.876;2022-10-19T01:47:09;9.30;99.90
13673;DHT22;6909;52.202;9.876;2022-10-19T01:49:40;9.30;99.90
13673;DHT22;6909;52.202;9.876;2022-10-19T01:52:11;9.40;99.90
13673;DHT22;6909;52.202;9.876;2022-10-19T01:54:43;9.40;99.90
13673;DHT22;6909;52.202;9.876;2022-10-19T01:57:12;9.40;99.90
13673;DHT22;6909;52.202;9.876;2022-10-19T01:59:40;9.40;99.90
13673;DHT22;6909;52.202;9.876;2022-10-19T02:02:09;9.50;99.90
13673;DHT22;6909;52.202;9.876;2022-10-19T02:04:37;9.60;99.90
13673;DHT22;6909;52.202;9.876;2022-10-19T02:07:05;9.60;99.90
13673;DHT22;6909;52.202;9.876;2022-10-19T02:09:33;9.60;99.90
13673;DHT22;6909;52.202;9.876;2022-10-19T02:12:03;9.60;99.90
13673;DHT22;6909;52.202;9.876;2022-10-19T02:14:33;9.60;99.90
13673;DHT22;6909;52.202;9.876;2022-10-19T02:17:04;9.70;99.90
13673;DHT22;6909;52.202;9.876;2022-10-19T02:19:33;9.60;99.90
13673;DHT22;6909;52.202;9.876;2022-10-19T02:21:59;9.70;99.90
13673;DHT22;6909;52.202;9.876;2022-10-19T02:24:26;9.70;99.90
13673;DHT22;6909;52.202;9.876;2022-10-19T02:26:54;9.60;99.90
13673;DHT22;6909;52.202;9.876;2022-10-19T02:29:21;9.50;99.90
13673;DHT22;6909;52.202;9.876;2022-10-19T02:31:48;9.50;99.90
13673;DHT22;6909;52.202;9.876;2022-10-19T02:34:15;9.50;99.90
13673;DHT22;6909;52.202;9.876;2022-10-19T02:36:43;9.50;99.90
13673;DHT22;6909;52.202;9.876;2022-10-19T02:39:10;9.50;99.90
13673;DHT22;6909;52.202;9.876;2022-10-19T02:41:40;9.50;99.90
13673;DHT22;6909;52.202;9.876;2022-10-19T02:44:12;9.50;99.90
13673;DHT22;6909;52.202;9.876;2022-10-19T02:46:43;9.50;99.90
13673;DHT22;6909;52.202;9.876;2022-10-19T02:49:11;9.50;99.90
13673;DHT22;6909;52.202;9.876;2022-10-19T02:51:53;9.50;99.90
13673;DHT22;6909;52.202;9.876;2022-10-19T02:54:22;9.50;99.90
13673;DHT22;6909;52.202;9.876;2022-10-19T02:56:49;9.60;99.90
13673;DHT22;6909;52.202;9.876;2022-10-19T02:59:16;9.50;99.90
13673;DHT22;6909;52.202;9.876;2022-10-19T03:01:43;9.60;99.90
13673;DHT22;6909;52.202;9.876;2022-10-19T03:04:10;9.80;99.90
13673;DHT22;6909;52.202;9.876;2022-10-19T03:06:36;9.70;99.90
13673;DHT22;6909;52.202;9.876;2022-10-19T03:09:03;9.70;99.90
13673;DHT22;6909;52.202;9.876;2022-10-19T03:11:31;9.70;99.90
13673;DHT22;6909;52.202;9.876;2022-10-19T03:13:58;9.60;99.90
13673;DHT22;6909;52.202;9.876;2022-10-19T03:16:25;9.60;99.90
13673;DHT22;6909;52.202;9.876;2022-10-19T03:18:51;9.60;99.90
13673;DHT22;6909;52.202;9.876;2022-10-19T03:21:19;9.60;99.90
13673;DHT22;6909;52.202;9.876;2022-10-19T03:23:45;9.60;99.90
13673;DHT22;6909;52.202;9.876;2022-10-19T03:26:14;9.60;99.90
13673;DHT22;6909;52.202;9.876;2022-10-19T03:28:42;9.60;99.90
13673;DHT22;6909;52.202;9.876;2022-10-19T03:31:09;9.70;99.90
13673;DHT22;6909;52.202;9.876;2022-10-19T03:33:35;9.80;99.90
13673;DHT22;6909;52.202;9.876;2022-10-19T03:36:12;9.70;99.90
13673;DHT22;6909;52.202;9.876;2022-10-19T03:38:39;9.70;99.90
13673;DHT22;6909;52.202;9.876;2022-10-19T03:41:06;9.60;99.90
13673;DHT22;6909;52.202;9.876;2022-10-19T03:43:33;9.70;99.90
13673;DHT22;6909;52.202;9.876;2022-10-19T03:46:01;9.70;99.90
13673;DHT22;6909;52.202;9.876;2022-10-19T03:48:28;9.70;99.90
13673;DHT22;6909;52.202;9.876;2022-10-19T03:50:58;9.70;99.90
13673;DHT22;6909;52.202;9.876;2022-10-19T03:53:25;9.70;99.90
13673;DHT22;6909;52.202;9.876;2022-10-19T03:55:51;9.70;99.90
13673;DHT22;6909;52.202;9.876;2022-10-19T03:58:18;9.70;99.90
13673;DHT22;6909;52.202;9.876;2022-10-19T04:00:45;9.70;99.90
13673;DHT22;6909;52.202;9.876;2022-10-19T04:03:13;9.70;99.90
13673;DHT22;6909;52.202;9.876;2022-10-19T04:05:39;9.70;99.90
13673;DHT22;6909;52.202;9.876;2022-10-19T04:08:06;9.70;99.90
13673;DHT22;6909;52.202;9.876;2022-10-19T04:10:33;9.80;99.90
13673;DHT22;6909;52.202;9.876;2022-10-19T04:12:59;9.80;99.90
13673;DHT22;6909;52.202;9.876;2022-10-19T04:15:26;9.80;99.90
13673;DHT22;6909;52.202;9.876;2022-10-19T04:17:53;9.90;99.90
13673;DHT22;6909;52.202;9.876;2022-10-19T04:20:21;9.90;99.90
13673;DHT22;6909;52.202;9.876;2022-10-19T04:22:47;9.90;99.90
13673;DHT22;6909;52.202;9.876;2022-10-19T04:25:14;9.90;99.90
13673;DHT22;6909;52.202;9.876;2022-10-19T04:27:41;9.90;99.90
13673;DHT22;6909;52.202;9.876;2022-10-19T04:30:08;9.90;99.90
13673;DHT22;6909;52.202;9.876;2022-10-19T04:32:35;9.90;99.90
13673;DHT22;6909;52.202;9.876;2022-10-19T04:35:02;9.90;99.90
13673;DHT22;6909;52.202;9.876;2022-10-19T04:37:30;9.90;99.90
13673;DHT22;6909;52.202;9.876;2022-10-19T04:39:57;9.90;99.90
13673;DHT22;6909;52.202;9.876;2022-10-19T04:42:23;9.90;99.90
13673;DHT22;6909;52.202;9.876;2022-10-19T04:44:50;9.90;99.90
13673;DHT22;6909;52.202;9.876;2022-10-19T04:47:17;10.00;99.90
13673;DHT22;6909;52.202;9.876;2022-10-19T04:49:43;10.00;99.90
13673;DHT22;6909;52.202;9.876;2022-10-19T04:52:10;9.90;99.90
13673;DHT22;6909;52.202;9.876;2022-10-19T04:54:38;9.90;99.90
13673;DHT22;6909;52.202;9.876;2022-10-19T04:57:05;9.90;99.90
13673;DHT22;6909;52.202;9.876;2022-10-19T04:59:31;9.90;99.90
13673;DHT22;6909;52.202;9.876;2022-10-19T05:01:58;10.00;99.90
13673;DHT22;6909;52.202;9.876;2022-10-19T05:04:25;9.90;99.90
13673;DHT22;6909;52.202;9.876;2022-10-19T05:06:52;9.90;99.90
13673;DHT22;6909;52.202;9.876;2022-10-19T05:09:18;9.90;99.90
13673;DHT22;6909;52.202;9.876;2022-10-19T05:11:48;9.90;99.90
13673;DHT22;6909;52.202;9.876;2022-10-19T05:14:15;9.90;99.90
13673;DHT22;6909;52.202;9.876;2022-10-19T05:16:45;9.90;99.90
13673;DHT22;6909;52.202;9.876;2022-10-19T05:19:12;9.80;99.90
13673;DHT22;6909;52.202;9.876;2022-10-19T05:21:39;9.90;99.90
13673;DHT22;6909;52.202;9.876;2022-10-19T05:24:06;9.80;99.90
13673;DHT22;6909;52.202;9.876;2022-10-19T05:26:33;9.80;99.90
13673;DHT22;6909;52.202;9.876;2022-10-19T05:29:01;9.80;99.90
13673;DHT22;6909;52.202;9.876;2022-10-19T05:31:29;9.80;99.90
13673;DHT22;6909;52.202;9.876;2022-10-19T05:33:57;9.80;99.90
13673;DHT22;6909;52.202;9.876;2022-10-19T05:36:26;9.80;99.90
13673;DHT22;6909;52.202;9.876;2022-10-19T05:38:54;9.90;99.90
13673;DHT22;6909;52.202;9.876;2022-10-19T05:41:22;9.90;99.90
13673;DHT22;6909;52.202;9.876;2022-10-19T05:43:52;9.80;99.90
13673;DHT22;6909;52.202;9.876;2022-10-19T05:46:21;9.80;99.90
13673;DHT22;6909;52.202;9.876;2022-10-19T05:48:48;9.80;99.90
13673;DHT22;6909;52.202;9.876;2022-10-19T05:51:19;9.80;99.90
13673;DHT22;6909;52.202;9.876;2022-10-19T05:53:46;9.80;99.90
13673;DHT22;6909;52.202;9.876;2022-10-19T05:56:15;9.80;99.90
13673;DHT22;6909;52.202;9.876;2022-10-19T05:58:42;9.90;99.90
13673;DHT22;6909;52.202;9.876;2022-10-19T06:01:09;9.90;99.90
13673;DHT22;6909;52.202;9.876;2022-10-19T06:03:37;9.90;99.90
13673;DHT22;6909;52.202;9.876;2022-10-19T06:06:05;9.90;99.90
13673;DHT22;6909;52.202;9.876;2022-10-19T06:08:32;9.90;99.90
13673;DHT22;6909;52.202;9.876;2022-10-19T06:11:07;9.90;99.90
13673;DHT22;6909;52.202;9.876;2022-10-19T06:13:34;10.00;99.90
13673;DHT22;6909;52.202;9.876;2022-10-19T06:16:01;10.00;99.90
13673;DHT22;6909;52.202;9.876;2022-10-19T06:18:27;10.00;99.90
13673;DHT22;6909;52.202;9.876;2022-10-19T06:21:00;10.10;99.90
13673;DHT22;6909;52.202;9.876;2022-10-19T06:23:28;10.10;99.90
13673;DHT22;6909;52.202;9.876;2022-10-19T06:25:55;10.10;99.90
13673;DHT22;6909;52.202;9.876;2022-10-19T06:28:21;10.20;99.90
13673;DHT22;6909;52.202;9.876;2022-10-19T06:30:48;10.20;99.90
13673;DHT22;6909;52.202;9.876;2022-10-19T06:33:15;10.20;99.90
13673;DHT22;6909;52.202;9.876;2022-10-19T06:35:41;10.30;99.90
13673;DHT22;6909;52.202;9.876;2022-10-19T06:38:09;10.40;99.90
13673;DHT22;6909;52.202;9.876;2022-10-19T06:40:38;10.40;99.90
13673;DHT22;6909;52.202;9.876;2022-10-19T06:43:04;10.40;99.90
13673;DHT22;6909;52.202;9.876;2022-10-19T06:45:31;10.40;99.90
13673;DHT22;6909;52.202;9.876;2022-10-19T06:47:58;10.50;99.90
13673;DHT22;6909;52.202;9.876;2022-10-19T06:50:25;10.50;99.90
13673;DHT22;6909;52.202;9.876;2022-10-19T06:52:52;10.50;99.90
13673;DHT22;6909;52.202;9.876;2022-10-19T06:55:20;10.50;99.90
13673;DHT22;6909;52.202;9.876;2022-10-19T06:57:46;10.50;99.90
13673;DHT22;6909;52.202;9.876;2022-10-19T07:00:14;10.50;99.90
13673;DHT22;6909;52.202;9.876;2022-10-19T07:02:41;10.60;99.90
13673;DHT22;6909;52.202;9.876;2022-10-19T07:05:08;10.80;99.90
13673;DHT22;6909;52.202;9.876;2022-10-19T07:07:35;10.90;99.90
13673;DHT22;6909;52.202;9.876;2022-10-19T07:10:02;10.90;99.90
13673;DHT22;6909;52.202;9.876;2022-10-19T07:12:30;10.90;99.90
13673;DHT22;6909;52.202;9.876;2022-10-19T07:14:57;11.00;99.90
13673;DHT22;6909;52.202;9.876;2022-10-19T07:17:24;11.10;99.90
13673;DHT22;6909;52.202;9.876;2022-10-19T07:19:50;11.20;99.90
13673;DHT22;6909;52.202;9.876;2022-10-19T07:22:17;11.40;99.90
13673;DHT22;6909;52.202;9.876;2022-10-19T07:24:44;11.50;99.90
13673;DHT22;6909;52.202;9.876;2022-10-19T07:27:11;11.50;99.90
13673;DHT22;6909;52.202;9.876;2022-10-19T07:29:39;11.60;99.90
13673;DHT22;6909;52.202;9.876;2022-10-19T07:32:06;11.80;99.90
13673;DHT22;6909;52.202;9.876;2022-10-19T07:34:32;11.70;99.90
13673;DHT22;6909;52.202;9.876;2022-10-19T07:36:59;11.70;99.90
13673;DHT22;6909;52.202;9.876;2022-10-19T07:39:26;11.70;99.90
13673;DHT22;6909;52.202;9.876;2022-10-19T07:41:52;12.00;99.90
13673;DHT22;6909;52.202;9.876;2022-10-19T07:44:19;12.30;99.90
13673;DHT22;6909;52.202;9.876;2022-10-19T07:46:47;12.30;99.90
13673;DHT22;6909;52.202;9.876;2022-10-19T07:49:15;12.30;99.90
13673;DHT22;6909;52.202;9.876;2022-10-19T07:51:43;12.50;99.90
13673;DHT22;6909;52.202;9.876;2022-10-19T07:54:10;12.50;99.90
13673;DHT22;6909;52.202;9.876;2022-10-19T07:56:37;12.50;99.90
13673;DHT22;6909;52.202;9.876;2022-10-19T07:59:04;12.60;99.90
13673;DHT22;6909;52.202;9.876;2022-10-19T08:01:33;12.70;99.90
13673;DHT22;6909;52.202;9.876;2022-10-19T08:04:02;12.80;99.90
13673;DHT22;6909;52.202;9.876;2022-10-19T08:06:29;12.90;99.90
13673;DHT22;6909;52.202;9.876;2022-10-19T08:08:56;13.00;99.90
13673;DHT22;6909;52.202;9.876;2022-10-19T08:11:24;13.10;99.90
13673;DHT22;6909;52.202;9.876;2022-10-19T08:13:52;13.30;99.90
13673;DHT22;6909;52.202;9.876;2022-10-19T08:16:22;13.30;99.90
13673;DHT22;6909;52.202;9.876;2022-10-19T08:18:50;13.50;99.90
13673;DHT22;6909;52.202;9.876;2022-10-19T08:21:18;13.40;99.90
13673;DHT22;6909;52.202;9.876;2022-10-19T08:23:45;13.40;99.90
13673;DHT22;6909;52.202;9.876;2022-10-19T08:26:11;13.50;99.90
13673;DHT22;6909;52.202;9.876;2022-10-19T08:28:38;12.90;99.90
13673;DHT22;6909;52.202;9.876;2022-10-19T08:31:09;12.80;99.90
13673;DHT22;6909;52.202;9.876;2022-10-19T08:33:36;13.00;99.90
13673;DHT22;6909;52.202;9.876;2022-10-19T08:36:04;12.90;99.90
13673;DHT22;6909;52.202;9.876;2022-10-19T08:38:33;13.00;99.90
13673;DHT22;6909;52.202;9.876;2022-10-19T08:41:07;12.60;99.90
13673;DHT22;6909;52.202;9.876;2022-10-19T08:43:47;12.60;99.90
13673;DHT22;6909;52.202;9.876;2022-10-19T08:46:21;12.70;99.90
13673;DHT22;6909;52.202;9.876;2022-10-19T08:48:51;12.90;99.90
13673;DHT22;6909;52.202;9.876;2022-10-19T08:51:18;13.10;99.90
13673;DHT22;6909;52.202;9.876;2022-10-19T08:53:51;13.20;99.90
13673;DHT22;6909;52.202;9.876;2022-10-19T08:56:27;13.40;99.90
13673;DHT22;6909;52.202;9.876;2022-10-19T08:59:04;13.50;99.90
13673;DHT22;6909;52.202;9.876;2022-10-19T09:01:39;13.90;99.90
13673;DHT22;6909;52.202;9.876;2022-10-19T09:04:14;14.00;99.90
13673;DHT22;6909;52.202;9.876;2022-10-19T09:06:50;13.80;99.90
13673;DHT22;6909;52.202;9.876;2022-10-19T09:09:20;14.10;99.90
13673;DHT22;6909;52.202;9.876;2022-10-19T09:11:48;13.30;99.90
13673;DHT22;6909;52.202;9.876;2022-10-19T09:14:20;13.10;78.90
13673;DHT22;6909;52.202;9.876;2022-10-19T09:16:48;13.60;97.40
13673;DHT22;6909;52.202;9.876;2022-10-19T09:19:20;13.20;1.00
13673;DHT22;6909;52.202;9.876;2022-10-19T09:21:54;12.70;99.90
13673;DHT22;6909;52.202;9.876;2022-10-19T09:24:28;12.60;99.90
13673;DHT22;6909;52.202;9.876;2022-10-19T09:26:59;12.60;99.90
13673;DHT22;6909;52.202;9.876;2022-10-19T09:29:31;12.80;1.00
13673;DHT22;6909;52.202;9.876;2022-10-19T09:32:03;12.80;99.90
13673;DHT22;6909;52.202;9.876;2022-10-19T09:34:33;12.90;1.00
13673;DHT22;6909;52.202;9.876;2022-10-19T09:37:02;12.60;1.00
13673;DHT22;6909;52.202;9.876;2022-10-19T09:39:30;12.50;99.90
13673;DHT22;6909;52.202;9.876;2022-10-19T09:41:58;12.60;99.90
13673;DHT22;6909;52.202;9.876;2022-10-19T09:44:27;12.80;1.00
13673;DHT22;6909;52.202;9.876;2022-10-19T09:47:00;13.00;1.00
13673;DHT22;6909;52.202;9.876;2022-10-19T09:49:39;13.20;1.00
13673;DHT22;6909;52.202;9.876;2022-10-19T09:52:22;13.00;99.90
13673;DHT22;6909;52.202;9.876;2022-10-19T09:54:58;13.20;1.00
13673;DHT22;6909;52.202;9.876;2022-10-19T09:57:26;13.20;1.00
13673;DHT22;6909;52.202;9.876;2022-10-19T09:59:54;13.30;99.90
13673;DHT22;6909;52.202;9.876;2022-10-19T10:02:28;12.90;1.00
13673;DHT22;6909;52.202;9.876;2022-10-19T10:05:03;12.60;1.00
13673;DHT22;6909;52.202;9.876;2022-10-19T10:07:34;12.70;1.00
13673;DHT22;6909;52.202;9.876;2022-10-19T10:10:09;12.70;99.90
13673;DHT22;6909;52.202;9.876;2022-10-19T10:12:39;12.80;99.90
13673;DHT22;6909;52.202;9.876;2022-10-19T10:15:15;12.90;99.90
13673;DHT22;6909;52.202;9.876;2022-10-19T10:17:44;12.80;1.00
13673;DHT22;6909;52.202;9.876;2022-10-19T10:20:22;12.70;1.00
13673;DHT22;6909;52.202;9.876;2022-10-19T10:22:54;12.70;1.00
13673;DHT22;6909;52.202;9.876;2022-10-19T10:25:28;13.00;1.00
13673;DHT22;6909;52.202;9.876;2022-10-19T10:27:59;13.10;1.00
13673;DHT22;6909;52.202;9.876;2022-10-19T10:30:29;13.10;1.00
13673;DHT22;6909;52.202;9.876;2022-10-19T10:32:58;12.90;99.90
13673;DHT22;6909;52.202;9.876;2022-10-19T10:35:30;12.70;99.90
13673;DHT22;6909;52.202;9.876;2022-10-19T10:38:07;13.00;34.60
13673;DHT22;6909;52.202;9.876;2022-10-19T10:40:37;13.30;42.10
13673;DHT22;6909;52.202;9.876;2022-10-19T10:43:06;13.50;1.00
13673;DHT22;6909;52.202;9.876;2022-10-19T10:45:38;13.60;1.00
13673;DHT22;6909;52.202;9.876;2022-10-19T10:48:16;13.80;1.00
13673;DHT22;6909;52.202;9.876;2022-10-19T10:50:45;13.50;1.00
13673;DHT22;6909;52.202;9.876;2022-10-19T10:53:29;13.50;1.00
13673;DHT22;6909;52.202;9.876;2022-10-19T10:55:58;13.60;1.00
13673;DHT22;6909;52.202;9.876;2022-10-19T10:58:33;13.60;99.90
13673;DHT22;6909;52.202;9.876;2022-10-19T11:01:04;13.50;99.90
13673;DHT22;6909;52.202;9.876;2022-10-19T11:03:35;13.20;99.90
13673;DHT22;6909;52.202;9.876;2022-10-19T11:06:03;13.30;99.90
13673;DHT22;6909;52.202;9.876;2022-10-19T11:08:34;12.90;1.00
13673;DHT22;6909;52.202;9.876;2022-10-19T11:11:11;12.80;1.00
13673;DHT22;6909;52.202;9.876;2022-10-19T11:13:44;13.00;1.00
13673;DHT22;6909;52.202;9.876;2022-10-19T11:16:16;13.10;1.00
13673;DHT22;6909;52.202;9.876;2022-10-19T11:18:46;12.80;1.00
13673;DHT22;6909;52.202;9.876;2022-10-19T11:21:17;13.00;1.00
13673;DHT22;6909;52.202;9.876;2022-10-19T11:23:53;13.00;1.00
13673;DHT22;6909;52.202;9.876;2022-10-19T11:26:39;13.10;1.00
13673;DHT22;6909;52.202;9.876;2022-10-19T11:29:23;13.30;1.00
13673;DHT22;6909;52.202;9.876;2022-10-19T11:31:54;13.50;1.00
13673;DHT22;6909;52.202;9.876;2022-10-19T11:34:36;13.40;1.00
13673;DHT22;6909;52.202;9.876;2022-10-19T11:37:10;13.60;1.00
13673;DHT22;6909;52.202;9.876;2022-10-19T11:39:48;13.10;99.90
13673;DHT22;6909;52.202;9.876;2022-10-19T11:42:25;13.00;99.90
13673;DHT22;6909;52.202;9.876;2022-10-19T11:45:04;12.80;99.90
13673;DHT22;6909;52.202;9.876;2022-10-19T11:47:52;13.20;99.90
13673;DHT22;6909;52.202;9.876;2022-10-19T11:50:34;13.40;99.90
13673;DHT22;6909;52.202;9.876;2022-10-19T11:53:10;12.90;99.90
13673;DHT22;6909;52.202;9.876;2022-10-19T11:55:44;13.10;99.90
13673;DHT22;6909;52.202;9.876;2022-10-19T11:58:26;12.80;99.90
13673;DHT22;6909;52.202;9.876;2022-10-19T12:00:59;12.70;99.90
13673;DHT22;6909;52.202;9.876;2022-10-19T12:03:55;12.70;99.90
13673;DHT22;6909;52.202;9.876;2022-10-19T12:06:30;12.80;84.70
13673;DHT22;6909;52.202;9.876;2022-10-19T12:09:08;12.80;53.80
13673;DHT22;6909;52.202;9.876;2022-10-19T12:11:48;12.90;50.80
13673;DHT22;6909;52.202;9.876;2022-10-19T12:14:23;12.90;1.00
13673;DHT22;6909;52.202;9.876;2022-10-19T12:16:53;13.10;99.90
13673;DHT22;6909;52.202;9.876;2022-10-19T12:19:23;12.80;12.20
13673;DHT22;6909;52.202;9.876;2022-10-19T12:21:54;12.90;53.90
13673;DHT22;6909;52.202;9.876;2022-10-19T12:24:24;12.80;1.00
13673;DHT22;6909;52.202;9.876;2022-10-19T12:26:53;12.70;1.00
13673;DHT22;6909;52.202;9.876;2022-10-19T12:29:23;12.90;1.00
13673;DHT22;6909;52.202;9.876;2022-10-19T12:31:51;13.00;1.00
13673;DHT22;6909;52.202;9.876;2022-10-19T12:34:30;12.90;1.00
13673;DHT22;6909;52.202;9.876;2022-10-19T12:37:07;12.80;1.00
13673;DHT22;6909;52.202;9.876;2022-10-19T12:39:42;12.80;1.00
13673;DHT22;6909;52.202;9.876;2022-10-19T12:42:16;12.80;1.00
13673;DHT22;6909;52.202;9.876;2022-10-19T12:45:07;12.90;1.00
13673;DHT22;6909;52.202;9.876;2022-10-19T12:48:19;12.70;1.00
13673;DHT22;6909;52.202;9.876;2022-10-19T12:53:41;13.00;1.00
13673;DHT22;6909;52.202;9.876;2022-10-19T12:56:12;13.10;1.00
13673;DHT22;6909;52.202;9.876;2022-10-19T12:58:49;12.90;1.00
13673;DHT22;6909;52.202;9.876;2022-10-19T13:01:24;12.90;1.00
13673;DHT22;6909;52.202;9.876;2022-10-19T13:04:04;13.10;1.00
13673;DHT22;6909;52.202;9.876;2022-10-19T13:06:34;13.00;1.00
13673;DHT22;6909;52.202;9.876;2022-10-19T13:09:04;13.00;1.00
13673;DHT22;6909;52.202;9.876;2022-10-19T13:11:31;13.00;1.00
13673;DHT22;6909;52.202;9.876;2022-10-19T13:14:02;13.10;1.00
13673;DHT22;6909;52.202;9.876;2022-10-19T13:16:57;13.10;1.00
13673;DHT22;6909;52.202;9.876;2022-10-19T13:19:25;12.90;1.00
13673;DHT22;6909;52.202;9.876;2022-10-19T13:22:22;12.80;1.00
13673;DHT22;6909;52.202;9.876;2022-10-19T13:25:23;12.90;1.00
13673;DHT22;6909;52.202;9.876;2022-10-19T13:27:52;12.90;1.00
13673;DHT22;6909;52.202;9.876;2022-10-19T13:30:58;13.10;1.00
13673;DHT22;6909;52.202;9.876;2022-10-19T13:33:45;13.10;1.00
13673;DHT22;6909;52.202;9.876;2022-10-19T13:36:12;13.00;1.00
13673;DHT22;6909;52.202;9.876;2022-10-19T13:38:40;12.60;1.00
13673;DHT22;6909;52.202;9.876;2022-10-19T13:41:25;12.50;1.00
13673;DHT22;6909;52.202;9.876;2022-10-19T13:43:59;12.20;1.00
13673;DHT22;6909;52.202;9.876;2022-10-19T13:46:47;12.10;1.00
13673;DHT22;6909;52.202;9.876;2022-10-19T13:49:38;12.10;1.00
13673;DHT22;6909;52.202;9.876;2022-10-19T13:52:36;12.10;1.00
13673;DHT22;6909;52.202;9.876;2022-10-19T13:55:42;12.20;1.00
13673;DHT22;6909;52.202;9.876;2022-10-19T13:58:30;12.40;1.00
13673;DHT22;6909;52.202;9.876;2022-10-19T14:01:11;12.60;1.00
13673;DHT22;6909;52.202;9.876;2022-10-19T14:04:00;12.70;1.00
13673;DHT22;6909;52.202;9.876;2022-10-19T14:06:38;12.60;1.00
13673;DHT22;6909;52.202;9.876;2022-10-19T14:12:19;12.50;1.00
13673;DHT22;6909;52.202;9.876;2022-10-19T14:14:46;12.40;1.00
13673;DHT22;6909;52.202;9.876;2022-10-19T14:17:16;12.20;1.00
13673;DHT22;6909;52.202;9.876;2022-10-19T14:19:46;12.10;1.00
13673;DHT22;6909;52.202;9.876;2022-10-19T14:22:21;12.10;1.00
13673;DHT22;6909;52.202;9.876;2022-10-19T14:24:49;12.10;1.00
13673;DHT22;6909;52.202;9.876;2022-10-19T14:27:18;12.00;1.00
13673;DHT22;6909;52.202;9.876;2022-10-19T14:29:49;12.00;1.00
13673;DHT22;6909;52.202;9.876;2022-10-19T14:32:17;12.00;1.00
13673;DHT22;6909;52.202;9.876;2022-10-19T14:34:46;12.00;1.00
13673;DHT22;6909;52.202;9.876;2022-10-19T14:37:16;12.00;1.00
13673;DHT22;6909;52.202;9.876;2022-10-19T14:39:56;11.90;1.00
13673;DHT22;6909;52.202;9.876;2022-10-19T14:42:23;11.90;1.00
13673;DHT22;6909;52.202;9.876;2022-10-19T14:45:00;11.80;1.00
13673;DHT22;6909;52.202;9.876;2022-10-19T14:47:27;11.80;1.00
13673;DHT22;6909;52.202;9.876;2022-10-19T14:49:55;11.80;1.00
13673;DHT22;6909;52.202;9.876;2022-10-19T14:52:26;11.80;1.00
13673;DHT22;6909;52.202;9.876;2022-10-19T14:54:56;11.80;1.00
13673;DHT22;6909;52.202;9.876;2022-10-19T14:57:26;11.70;1.00
13673;DHT22;6909;52.202;9.876;2022-10-19T14:59:56;11.70;1.00
13673;DHT22;6909;52.202;9.876;2022-10-19T15:02:25;11.70;1.00
13673;DHT22;6909;52.202;9.876;2022-10-19T15:04:54;11.70;1.00
13673;DHT22;6909;52.202;9.876;2022-10-19T15:07:23;11.70;1.00
13673;DHT22;6909;52.202;9.876;2022-10-19T15:09:53;11.50;1.00
13673;DHT22;6909;52.202;9.876;2022-10-19T15:12:26;11.50;1.00
13673;DHT22;6909;52.202;9.876;2022-10-19T15:14:54;11.50;1.00
13673;DHT22;6909;52.202;9.876;2022-10-19T15:17:24;11.40;1.00
13673;DHT22;6909;52.202;9.876;2022-10-19T15:19:52;11.40;1.00
13673;DHT22;6909;52.202;9.876;2022-10-19T15:22:23;11.30;1.00
13673;DHT22;6909;52.202;9.876;2022-10-19T15:24:58;11.20;1.00
13673;DHT22;6909;52.202;9.876;2022-10-19T15:27:31;11.20;1.00
13673;DHT22;6909;52.202;9.876;2022-10-19T15:30:00;11.20;1.00
13673;DHT22;6909;52.202;9.876;2022-10-19T15:32:30;11.20;1.00
13673;DHT22;6909;52.202;9.876;2022-10-19T15:34:57;11.10;8.10
13673;DHT22;6909;52.202;9.876;2022-10-19T15:37:24;11.00;66.90
13673;DHT22;6909;52.202;9.876;2022-10-19T15:39:51;11.00;99.90
13673;DHT22;6909;52.202;9.876;2022-10-19T15:42:35;11.00;99.90
13673;DHT22;6909;52.202;9.876;2022-10-19T15:45:03;11.00;99.80
13673;DHT22;6909;52.202;9.876;2022-10-19T15:47:30;11.00;80.40
13673;DHT22;6909;52.202;9.876;2022-10-19T15:49:58;11.10;34.00
13673;DHT22;6909;52.202;9.876;2022-10-19T15:52:28;11.00;19.70
13673;DHT22;6909;52.202;9.876;2022-10-19T15:54:56;11.10;1.00
13673;DHT22;6909;52.202;9.876;2022-10-19T15:57:26;11.00;1.00
13673;DHT22;6909;52.202;9.876;2022-10-19T15:59:55;10.90;31.50
13673;DHT22;6909;52.202;9.876;2022-10-19T16:02:22;10.70;99.90
13673;DHT22;6909;52.202;9.876;2022-10-19T16:04:49;10.50;99.90
13673;DHT22;6909;52.202;9.876;2022-10-19T16:07:21;10.40;1.00
13673;DHT22;6909;52.202;9.876;2022-10-19T16:09:49;10.20;1.00
13673;DHT22;6909;52.202;9.876;2022-10-19T16:12:16;10.00;1.00
13673;DHT22;6909;52.202;9.876;2022-10-19T16:14:43;9.90;29.10
13673;DHT22;6909;52.202;9.876;2022-10-19T16:17:12;9.80;99.90
13673;DHT22;6909;52.202;9.876;2022-10-19T16:19:39;9.70;99.90
13673;DHT22;6909;52.202;9.876;2022-10-19T16:22:05;9.70;99.90
13673;DHT22;6909;52.202;9.876;2022-10-19T16:24:32;9.60;1.00
13673;DHT22;6909;52.202;9.876;2022-10-19T16:26:59;9.50;1.00
13673;DHT22;6909;52.202;9.876;2022-10-19T16:29:26;9.40;1.00